createdAt,value
2023-04-09T00:00:00.276Z,18.30
2023-04-09T00:02:29.590Z,18.92
2023-04-09T00:04:57.341Z,18.88
2023-04-09T00:07:25.219Z,17.90
2023-04-09T00:09:52.904Z,18.38
2023-04-09T00:12:20.708Z,17.20
2023-04-09T00:14:48.386Z,18.42
2023-04-09T00:17:16.419Z,18.67
2023-04-09T00:19:45.490Z,18.90
2023-04-09T00:22:13.182Z,17.60
2023-04-09T00:24:41.016Z,17.40
2023-04-09T00:27:08.707Z,18.13
2023-04-09T00:29:36.749Z,17.38
2023-04-09T00:32:04.475Z,18.17
2023-04-09T00:34:32.282Z,16.33
2023-04-09T00:37:01.902Z,17.33
2023-04-09T00:39:29.638Z,17.90
2023-04-09T00:41:59.042Z,16.92
2023-04-09T00:44:26.844Z,18.55
2023-04-09T00:46:55.364Z,18.05
2023-04-09T00:49:24.835Z,17.40
2023-04-09T00:51:52.645Z,18.33
2023-04-09T00:54:21.911Z,17.30
2023-04-09T00:56:49.611Z,16.90
2023-04-09T00:59:17.325Z,17.98
2023-04-09T01:01:45.038Z,17.60
2023-04-09T01:04:12.831Z,17.98
2023-04-09T01:06:45.397Z,17.63
2023-04-09T01:09:19.682Z,17.45
2023-04-09T01:11:55.038Z,16.65
2023-04-09T01:14:26.284Z,17.80
2023-04-09T01:16:57.656Z,18.70
2023-04-09T01:19:38.371Z,18.02
2023-04-09T01:22:07.446Z,18.17
2023-04-09T01:24:43.137Z,18.30
2023-04-09T01:27:13.307Z,18.98
2023-04-09T01:29:47.773Z,19.55
2023-04-09T01:32:18.008Z,19.55
2023-04-09T01:34:46.421Z,17.58
2023-04-09T01:37:15.230Z,18.63
2023-04-09T01:39:43.311Z,19.33
2023-04-09T01:42:12.308Z,19.85
2023-04-09T01:44:42.110Z,22.15
2023-04-09T01:47:10.300Z,22.92
2023-04-09T01:49:38.979Z,22.85
2023-04-09T01:52:06.927Z,20.98
2023-04-09T01:54:34.621Z,21.25
2023-04-09T01:57:02.422Z,22.33
2023-04-09T01:59:30.328Z,22.40
2023-04-09T02:02:01.431Z,21.42
2023-04-09T02:04:33.736Z,21.00
2023-04-09T02:07:27.520Z,23.98
2023-04-09T02:09:55.721Z,24.58
2023-04-09T02:12:23.642Z,22.23
2023-04-09T02:14:53.405Z,23.73
2023-04-09T02:17:22.838Z,25.27
2023-04-09T02:19:50.877Z,24.55
2023-04-09T02:22:18.997Z,23.50
2023-04-09T02:24:47.681Z,23.50
2023-04-09T02:27:15.384Z,22.50
2023-04-09T02:30:03.299Z,21.10
2023-04-09T02:32:32.463Z,21.20
2023-04-09T02:35:00.142Z,19.13
2023-04-09T02:37:27.840Z,20.85
2023-04-09T02:39:55.494Z,22.17
2023-04-09T02:42:23.165Z,21.98
2023-04-09T02:44:50.830Z,20.53
2023-04-09T02:47:18.561Z,19.70
2023-04-09T02:49:47.659Z,20.65
2023-04-09T02:52:15.368Z,21.13
2023-04-09T02:54:43.028Z,21.63
2023-04-09T02:57:10.778Z,23.55
2023-04-09T02:59:39.112Z,19.85
2023-04-09T03:02:06.991Z,21.90
2023-04-09T03:04:34.705Z,22.25
2023-04-09T03:07:03.848Z,20.98
2023-04-09T03:09:31.768Z,22.55
2023-04-09T03:11:59.460Z,22.23
2023-04-09T03:14:27.194Z,23.35
2023-04-09T03:16:54.888Z,22.55
2023-04-09T03:19:22.560Z,23.90
2023-04-09T03:21:51.361Z,23.55
2023-04-09T03:24:20.534Z,23.75
2023-04-09T03:26:48.331Z,24.75
2023-04-09T03:29:16.300Z,23.80
2023-04-09T03:31:44.140Z,24.58
2023-04-09T03:34:11.935Z,26.15
2023-04-09T03:36:39.608Z,27.02
2023-04-09T03:39:07.277Z,26.58
2023-04-09T03:41:36.382Z,25.65
2023-04-09T03:44:04.058Z,25.55
2023-04-09T03:46:31.709Z,25.35
2023-04-09T03:48:59.436Z,24.67
2023-04-09T03:51:27.838Z,24.13
2023-04-09T03:53:55.586Z,25.60
2023-04-09T03:56:23.296Z,24.80
2023-04-09T03:58:52.749Z,24.98
2023-04-09T04:01:20.679Z,25.67
2023-04-09T04:03:48.517Z,25.23
2023-04-09T04:06:16.290Z,25.88
2023-04-09T04:08:44.709Z,25.55
2023-04-09T04:11:12.454Z,26.42
2023-04-09T04:13:40.247Z,25.88
2023-04-09T04:16:10.582Z,27.38
2023-04-09T04:18:38.448Z,27.10
2023-04-09T04:21:06.207Z,26.23
2023-04-09T04:23:35.248Z,24.67
2023-04-09T04:26:03.438Z,25.58
2023-04-09T04:28:31.101Z,26.33
2023-04-09T04:30:58.777Z,25.48
2023-04-09T04:33:27.916Z,26.97
2023-04-09T04:35:55.844Z,24.90
2023-04-09T04:38:23.579Z,25.65
2023-04-09T04:40:51.498Z,25.20
2023-04-09T04:43:19.207Z,25.23
2023-04-09T04:45:46.926Z,25.95
2023-04-09T04:48:14.633Z,27.83
2023-04-09T04:50:43.688Z,26.30
2023-04-09T04:53:11.432Z,26.43
2023-04-09T04:55:40.391Z,26.80
2023-04-09T04:58:08.163Z,26.75
2023-04-09T05:00:35.882Z,26.13
2023-04-09T05:03:03.851Z,27.30
2023-04-09T05:05:31.699Z,27.85
2023-04-09T05:08:00.809Z,27.88
2023-04-09T05:10:28.524Z,27.67
2023-04-09T05:12:56.203Z,29.50
2023-04-09T05:15:23.947Z,28.92
2023-04-09T05:17:51.684Z,27.17
2023-04-09T05:20:19.632Z,28.88
2023-04-09T05:22:47.347Z,29.60
2023-04-09T05:25:17.234Z,28.90
2023-04-09T05:27:44.997Z,30.75
2023-04-09T05:30:13.475Z,27.70
2023-04-09T05:32:41.247Z,29.98
2023-04-09T05:35:27.423Z,30.20
2023-04-09T05:37:55.104Z,27.02
2023-04-09T05:40:24.300Z,27.80
2023-04-09T05:42:52.124Z,30.83
2023-04-09T05:45:19.776Z,30.33
2023-04-09T05:47:47.530Z,31.27
2023-04-09T05:50:15.320Z,31.98
2023-04-09T05:53:26.794Z,30.83
2023-04-09T05:55:55.990Z,30.33
2023-04-09T05:58:23.692Z,31.85
2023-04-09T06:00:52.617Z,30.40
2023-04-09T06:03:20.640Z,33.20
2023-04-09T06:05:48.733Z,34.22
2023-04-09T06:08:16.649Z,32.17
2023-04-09T06:10:44.363Z,34.80
2023-04-09T06:13:13.446Z,34.53
2023-04-09T06:15:41.235Z,34.08
2023-04-09T06:18:09.032Z,34.23
2023-04-09T06:20:36.838Z,33.50
2023-04-09T06:23:04.962Z,33.38
2023-04-09T06:25:32.619Z,35.55
2023-04-09T06:28:00.295Z,35.35
2023-04-09T06:30:29.816Z,36.22
2023-04-09T06:32:57.516Z,36.42
2023-04-09T06:35:27.969Z,38.08
2023-04-09T06:37:55.677Z,35.45
2023-04-09T06:40:23.552Z,37.93
2023-04-09T06:42:51.547Z,36.13
2023-04-09T06:45:19.284Z,37.88
2023-04-09T06:47:48.484Z,37.38
2023-04-09T06:50:16.258Z,37.00
2023-04-09T06:52:43.957Z,37.33
2023-04-09T06:55:11.701Z,36.63
2023-04-09T06:57:39.791Z,35.72
2023-04-09T07:00:09.661Z,33.80
2023-04-09T07:02:37.587Z,34.25
2023-04-09T07:05:07.861Z,34.10
2023-04-09T07:07:35.588Z,34.47
2023-04-09T07:10:03.287Z,33.83
2023-04-09T07:12:31.664Z,34.10
2023-04-09T07:15:00.057Z,32.13
2023-04-09T07:17:27.781Z,31.63
2023-04-09T07:19:55.692Z,32.30
2023-04-09T07:22:26.788Z,29.42
2023-04-09T07:24:55.137Z,28.92
2023-04-09T07:27:23.314Z,29.20
2023-04-09T07:29:51.131Z,28.63
2023-04-09T07:32:18.834Z,27.63
2023-04-09T07:34:46.643Z,27.73
2023-04-09T07:37:14.330Z,28.77
2023-04-09T07:39:43.751Z,26.52
2023-04-09T07:42:11.455Z,25.30
2023-04-09T07:44:39.558Z,24.75
2023-04-09T07:47:08.582Z,23.45
2023-04-09T07:49:37.519Z,23.65
2023-04-09T07:52:05.829Z,22.98
2023-04-09T07:54:33.668Z,22.97
2023-04-09T07:57:02.907Z,23.00
2023-04-09T07:59:31.725Z,21.73
2023-04-09T08:02:00.031Z,20.85
2023-04-09T08:04:28.365Z,20.75
2023-04-09T08:06:56.146Z,19.60
2023-04-09T08:09:29.885Z,19.50
2023-04-09T08:11:57.795Z,19.60
2023-04-09T08:14:26.965Z,19.05
2023-04-09T08:17:15.070Z,17.92
2023-04-09T08:19:46.377Z,19.38
2023-04-09T08:22:14.077Z,17.25
2023-04-09T08:24:43.370Z,17.73
2023-04-09T08:27:11.091Z,17.13
2023-04-09T08:29:40.585Z,17.52
2023-04-09T08:32:08.326Z,16.73
2023-04-09T08:34:36.028Z,16.15
2023-04-09T08:37:03.716Z,15.07
2023-04-09T08:39:31.826Z,13.73
2023-04-09T08:42:01.825Z,13.50
2023-04-09T08:44:30.584Z,13.27
2023-04-09T08:47:01.060Z,12.95
2023-04-09T08:49:28.809Z,13.23
2023-04-09T08:51:56.542Z,12.65
2023-04-09T08:54:26.685Z,13.17
2023-04-09T08:56:54.463Z,13.47
2023-04-09T08:59:22.142Z,13.18
2023-04-09T09:02:13.220Z,11.73
2023-04-09T09:04:50.360Z,11.73
2023-04-09T09:07:18.313Z,10.95
2023-04-09T09:09:53.816Z,11.85
2023-04-09T09:12:33.019Z,10.82
2023-04-09T09:15:28.058Z,10.90
2023-04-09T09:17:58.409Z,10.05
2023-04-09T09:20:27.976Z,10.93
2023-04-09T09:22:57.148Z,11.27
2023-04-09T09:25:26.407Z,11.17
2023-04-09T09:27:55.288Z,10.52
2023-04-09T09:30:24.223Z,11.95
2023-04-09T09:32:54.555Z,12.45
2023-04-09T09:35:22.489Z,11.82
2023-04-09T09:38:02.303Z,11.17
2023-04-09T09:40:30.090Z,12.40
2023-04-09T09:42:58.315Z,11.68
2023-04-09T09:45:26.517Z,12.07
2023-04-09T09:47:54.896Z,11.88
2023-04-09T09:50:25.388Z,11.70
2023-04-09T09:52:59.445Z,11.35
2023-04-09T09:55:29.071Z,10.70
2023-04-09T09:57:58.068Z,10.70
2023-04-09T10:00:26.680Z,11.57
2023-04-09T10:02:59.063Z,12.05
2023-04-09T10:05:28.921Z,10.43
2023-04-09T10:07:58.725Z,10.52
2023-04-09T10:10:27.317Z,11.02
2023-04-09T10:12:55.201Z,10.70
2023-04-09T10:15:22.923Z,11.30
2023-04-09T10:17:50.765Z,11.18
2023-04-09T10:20:21.303Z,10.98
2023-04-09T10:22:51.790Z,11.82
2023-04-09T10:25:21.767Z,11.38
2023-04-09T10:28:00.783Z,10.68
2023-04-09T10:30:36.052Z,10.50
2023-04-09T10:33:11.577Z,10.03
2023-04-09T10:35:39.415Z,10.70
2023-04-09T10:38:09.613Z,10.98
2023-04-09T10:40:42.304Z,10.38
2023-04-09T10:43:11.026Z,10.50
2023-04-09T10:45:42.671Z,10.25
2023-04-09T10:48:15.009Z,9.55
2023-04-09T10:50:44.358Z,8.95
2023-04-09T10:53:23.139Z,9.07
2023-04-09T10:55:53.376Z,8.23
2023-04-09T10:58:21.113Z,8.75
2023-04-09T11:00:50.281Z,8.75
2023-04-09T11:03:23.925Z,9.10
2023-04-09T11:05:53.936Z,9.03
2023-04-09T11:08:22.620Z,8.60
2023-04-09T11:10:54.449Z,9.30
2023-04-09T11:13:22.118Z,9.00
2023-04-09T11:15:50.051Z,8.35
2023-04-09T11:18:21.696Z,9.13
2023-04-09T11:20:49.523Z,7.63
2023-04-09T11:23:18.690Z,8.57
2023-04-09T11:25:50.505Z,8.33
2023-04-09T11:28:20.398Z,8.23
2023-04-09T11:30:48.500Z,8.37
2023-04-09T11:33:19.170Z,7.20
2023-04-09T11:35:47.693Z,7.83
2023-04-09T11:38:15.441Z,7.30
2023-04-09T11:40:48.225Z,7.43
2023-04-09T11:43:17.062Z,7.70
2023-04-09T11:45:48.270Z,7.05
2023-04-09T11:48:18.194Z,7.00
2023-04-09T11:50:46.636Z,7.88
2023-04-09T11:53:18.925Z,7.72
2023-04-09T11:55:49.153Z,7.30
2023-04-09T11:58:17.409Z,8.00
2023-04-09T12:00:46.678Z,8.05
2023-04-09T12:03:16.845Z,7.82
2023-04-09T12:05:50.563Z,8.10
2023-04-09T12:08:23.964Z,8.20
2023-04-09T12:10:53.710Z,7.93
2023-04-09T12:13:21.878Z,7.93
2023-04-09T12:15:51.493Z,7.80
2023-04-09T12:18:19.375Z,7.88
2023-04-09T12:20:49.705Z,7.95
2023-04-09T12:23:31.434Z,8.18
2023-04-09T12:26:01.224Z,8.20
2023-04-09T12:28:29.654Z,8.55
2023-04-09T12:30:59.739Z,8.35
2023-04-09T12:33:27.517Z,8.35
2023-04-09T12:35:56.152Z,8.70
2023-04-09T12:38:23.876Z,8.38
2023-04-09T12:40:51.945Z,8.00
2023-04-09T12:43:19.595Z,7.97
2023-04-09T12:45:47.351Z,8.35
2023-04-09T12:48:16.660Z,7.85
2023-04-09T12:50:44.295Z,7.95
2023-04-09T12:53:11.943Z,8.02
2023-04-09T12:55:42.202Z,7.68
2023-04-09T12:58:10.599Z,8.20
2023-04-09T13:00:38.380Z,7.47
2023-04-09T13:03:07.086Z,7.85
2023-04-09T13:05:36.274Z,6.70
2023-04-09T13:08:04.257Z,7.00
2023-04-09T13:10:33.323Z,7.80
2023-04-09T13:13:00.982Z,7.50
2023-04-09T13:15:28.645Z,7.33
2023-04-09T13:17:57.150Z,6.78
2023-04-09T13:20:24.900Z,6.10
2023-04-09T13:22:54.039Z,6.05
2023-04-09T13:25:21.740Z,6.28
2023-04-09T13:27:49.674Z,6.10
2023-04-09T13:30:35.665Z,5.53
2023-04-09T13:33:03.677Z,5.87
2023-04-09T13:35:32.045Z,5.72
2023-04-09T13:38:01.334Z,5.75
2023-04-09T13:40:29.026Z,4.78
2023-04-09T13:42:56.693Z,5.40
2023-04-09T13:45:24.654Z,5.32
2023-04-09T13:47:52.368Z,5.18
2023-04-09T13:50:20.131Z,5.35
2023-04-09T13:52:47.743Z,5.45
2023-04-09T13:55:16.933Z,6.00
2023-04-09T13:57:44.581Z,5.97
2023-04-09T14:00:14.054Z,5.78
2023-04-09T14:02:42.075Z,5.32
2023-04-09T14:05:10.444Z,5.25
2023-04-09T14:07:38.142Z,4.93
2023-04-09T14:10:06.640Z,5.00
2023-04-09T14:12:35.906Z,4.90
2023-04-09T14:15:05.095Z,4.90
2023-04-09T14:17:32.755Z,5.05
2023-04-09T14:20:03.513Z,5.55
2023-04-09T14:22:31.556Z,5.68
2023-04-09T14:24:59.428Z,5.30
2023-04-09T14:27:27.264Z,5.40
2023-04-09T14:29:56.303Z,5.65
2023-04-09T14:32:23.997Z,5.88
2023-04-09T14:34:51.915Z,6.00
2023-04-09T14:37:19.595Z,5.97
2023-04-09T14:39:47.267Z,5.93
2023-04-09T14:42:14.987Z,5.68
2023-04-09T14:44:42.692Z,5.85
2023-04-09T14:49:57.389Z,5.82
2023-04-09T14:52:26.038Z,6.32
2023-04-09T14:54:53.665Z,6.18
2023-04-09T14:57:21.351Z,6.60
2023-04-09T14:59:49.009Z,6.13
2023-04-09T15:02:18.622Z,5.90
2023-04-09T15:04:46.555Z,6.25
2023-04-09T15:07:14.326Z,5.77
2023-04-09T15:09:41.996Z,6.35
2023-04-09T15:12:16.213Z,6.10
2023-04-09T15:14:44.094Z,5.82
2023-04-09T15:17:11.773Z,6.05
2023-04-09T15:19:40.796Z,6.32
2023-04-09T15:22:08.457Z,6.50
2023-04-09T15:24:36.109Z,6.18
2023-04-09T15:27:03.777Z,6.18
2023-04-09T15:29:31.442Z,6.40
2023-04-09T15:31:59.193Z,5.90
2023-04-09T15:34:27.288Z,6.20
2023-04-09T15:36:56.410Z,6.90
2023-04-09T15:39:24.579Z,5.90
2023-04-09T15:41:52.273Z,6.90
2023-04-09T15:44:19.924Z,5.90
2023-04-09T15:46:47.552Z,6.20
2023-04-09T15:49:15.437Z,6.60
2023-04-09T15:51:43.091Z,6.90
2023-04-09T15:54:12.225Z,6.88
2023-04-09T15:56:40.395Z,6.60
2023-04-09T15:59:08.492Z,6.80
2023-04-09T16:01:36.872Z,6.47
2023-04-09T16:04:05.223Z,6.90
2023-04-09T16:06:33.105Z,6.38
2023-04-09T16:09:01.358Z,6.10
2023-04-09T16:11:30.725Z,6.35
2023-04-09T16:13:58.696Z,6.35
2023-04-09T16:16:26.430Z,6.03
2023-04-09T16:18:54.301Z,6.03
2023-04-09T16:21:22.217Z,6.13
2023-04-09T16:23:49.886Z,6.10
2023-04-09T16:26:17.700Z,6.25
2023-04-09T16:28:46.774Z,6.13
2023-04-09T16:31:14.784Z,5.85
2023-04-09T16:33:42.492Z,6.50
2023-04-09T16:36:10.318Z,6.80
2023-04-09T16:38:38.111Z,6.97
2023-04-09T16:41:06.005Z,7.75
2023-04-09T16:43:33.698Z,7.43
2023-04-09T16:46:03.200Z,7.30
2023-04-09T16:48:31.135Z,7.05
2023-04-09T16:50:58.875Z,6.75
2023-04-09T16:53:26.742Z,7.60
2023-04-09T16:55:54.435Z,10.05
2023-04-09T16:58:22.211Z,9.68
2023-04-09T17:00:51.438Z,7.90
2023-04-09T17:03:22.389Z,8.27
2023-04-09T17:05:50.189Z,7.93
2023-04-09T17:08:18.283Z,7.65
2023-04-09T17:10:46.049Z,7.95
2023-04-09T17:13:13.732Z,9.07
2023-04-09T17:15:41.496Z,9.93
2023-04-09T17:18:31.165Z,11.80
2023-04-09T17:20:59.883Z,12.30
2023-04-09T17:23:27.599Z,11.30
2023-04-09T17:25:55.368Z,10.35
2023-04-09T17:28:23.106Z,9.45
2023-04-09T17:30:50.983Z,9.20
2023-04-09T17:33:18.952Z,8.93
2023-04-09T17:35:50.786Z,8.15
2023-04-09T17:38:21.370Z,8.65
2023-04-09T17:40:49.651Z,9.20
2023-04-09T17:43:17.689Z,8.85
2023-04-09T17:45:45.692Z,9.45
2023-04-09T17:48:13.394Z,9.83
2023-04-09T17:51:00.829Z,9.75
2023-04-09T17:53:28.489Z,9.18
2023-04-09T17:55:56.178Z,10.83
2023-04-09T17:58:24.363Z,10.82
2023-04-09T18:00:52.888Z,10.10
2023-04-09T18:03:20.950Z,10.18
2023-04-09T18:05:49.064Z,10.57
2023-04-09T18:08:18.323Z,10.43
2023-04-09T18:11:01.665Z,10.50
2023-04-09T18:13:39.038Z,11.07
2023-04-09T18:16:10.024Z,10.65
2023-04-09T18:18:37.735Z,9.85
2023-04-09T18:21:06.202Z,9.73
2023-04-09T18:23:35.522Z,9.88
2023-04-09T18:26:03.221Z,10.48
2023-04-09T18:28:30.888Z,11.65
2023-04-09T18:30:58.910Z,11.10
2023-04-09T18:33:27.130Z,11.50
2023-04-09T18:35:54.936Z,13.23
2023-04-09T18:38:22.827Z,12.35
2023-04-09T18:40:51.881Z,11.73
2023-04-09T18:43:19.626Z,12.15
2023-04-09T18:45:47.303Z,13.60
2023-04-09T18:48:14.974Z,12.27
2023-04-09T18:50:42.641Z,13.55
2023-04-09T18:53:10.607Z,14.30
2023-04-09T18:55:38.576Z,12.87
2023-04-09T18:58:08.954Z,14.60
2023-04-09T19:00:36.785Z,14.23
2023-04-09T19:03:05.659Z,16.25
2023-04-09T19:05:33.872Z,16.65
2023-04-09T19:08:02.699Z,17.83
2023-04-09T19:10:30.760Z,18.48
2023-04-09T19:12:58.429Z,18.93
2023-04-09T19:15:33.394Z,21.45
2023-04-09T19:18:01.466Z,21.33
2023-04-09T19:20:29.161Z,22.63
2023-04-09T19:22:57.425Z,21.10
2023-04-09T19:25:25.240Z,22.13
2023-04-09T19:27:54.278Z,22.15
2023-04-09T19:30:22.129Z,20.67
2023-04-09T19:32:51.390Z,21.87
2023-04-09T19:35:19.108Z,21.83
2023-04-09T19:37:46.826Z,22.08
2023-04-09T19:40:16.999Z,24.10
2023-04-09T19:42:44.809Z,23.10
2023-04-09T19:45:13.389Z,23.88
2023-04-09T19:47:41.267Z,22.90
2023-04-09T19:50:11.392Z,21.20
2023-04-09T19:52:41.314Z,22.27
2023-04-09T19:55:10.495Z,22.33
2023-04-09T19:57:38.189Z,22.80
2023-04-09T20:00:07.314Z,22.58
2023-04-09T20:02:35.152Z,22.83
2023-04-09T20:05:02.996Z,23.50
2023-04-09T20:07:32.710Z,22.63
2023-04-09T20:10:00.829Z,23.20
2023-04-09T20:12:29.624Z,24.07
2023-04-09T20:14:57.412Z,23.88
2023-04-09T20:17:25.340Z,23.35
2023-04-09T20:19:53.071Z,25.00
2023-04-09T20:22:20.848Z,24.70
2023-04-09T20:24:52.066Z,24.80
2023-04-09T20:27:19.699Z,24.90
2023-04-09T20:29:48.069Z,26.80
2023-04-09T20:32:15.789Z,27.60
2023-04-09T20:34:43.549Z,27.27
2023-04-09T20:37:11.522Z,27.83
2023-04-09T20:39:39.221Z,27.05
2023-04-09T20:42:08.223Z,27.95
2023-04-09T20:44:36.191Z,28.95
2023-04-09T20:47:03.888Z,28.25
2023-04-09T20:49:31.556Z,31.02
2023-04-09T20:51:59.452Z,27.77
2023-04-09T20:54:27.557Z,28.42
2023-04-09T20:56:55.388Z,27.90
2023-04-09T20:59:24.960Z,29.08
2023-04-09T21:01:54.140Z,30.60
2023-04-09T21:04:21.992Z,32.57
2023-04-09T21:06:49.742Z,30.98
2023-04-09T21:09:17.391Z,31.02
2023-04-09T21:11:45.046Z,32.90
2023-04-09T21:14:14.612Z,30.85
2023-04-09T21:16:43.735Z,33.35
2023-04-09T21:19:11.735Z,33.95
2023-04-09T21:21:39.431Z,38.53
2023-04-09T21:24:07.121Z,35.58
2023-04-09T21:26:49.192Z,37.95
2023-04-09T21:29:18.463Z,36.03
2023-04-09T21:31:48.642Z,38.75
2023-04-09T21:34:16.836Z,40.60
2023-04-09T21:36:45.529Z,37.17
2023-04-09T21:39:13.401Z,40.65
2023-04-09T21:41:41.239Z,43.50
2023-04-09T21:44:09.026Z,43.60
2023-04-09T21:46:37.212Z,44.40
2023-04-09T21:49:22.034Z,44.55
2023-04-09T21:51:49.700Z,43.87
2023-04-09T21:54:17.337Z,42.95
2023-04-09T21:56:44.985Z,43.22
2023-04-09T21:59:12.662Z,41.83
2023-04-09T22:01:40.395Z,43.28
2023-04-09T22:04:08.403Z,40.22
2023-04-09T22:06:38.274Z,40.33
2023-04-09T22:09:06.122Z,38.38
2023-04-09T22:11:34.462Z,36.70
2023-04-09T22:14:02.266Z,38.67
2023-04-09T22:16:29.919Z,42.80
2023-04-09T22:18:58.006Z,40.42
2023-04-09T22:21:26.465Z,43.70
2023-04-09T22:23:55.992Z,41.20
2023-04-09T22:26:23.853Z,44.87
2023-04-09T22:28:51.635Z,44.42
2023-04-09T22:31:40.293Z,42.85
2023-04-09T22:34:20.100Z,43.13
2023-04-09T22:36:49.320Z,45.83
2023-04-09T22:39:18.495Z,46.15
2023-04-09T22:41:46.123Z,43.95
2023-04-09T22:44:13.765Z,43.57
2023-04-09T22:46:42.174Z,44.83
2023-04-09T22:49:10.071Z,41.38
2023-04-09T22:51:40.174Z,41.28
2023-04-09T22:54:09.096Z,39.92
2023-04-09T22:56:38.459Z,38.33
2023-04-09T22:59:06.243Z,38.10
2023-04-09T23:01:34.100Z,37.35
2023-04-09T23:04:01.902Z,38.87
2023-04-09T23:06:30.960Z,37.50
2023-04-09T23:08:59.847Z,37.85
2023-04-09T23:11:27.691Z,36.85
2023-04-09T23:13:56.756Z,37.60
2023-04-09T23:16:24.508Z,36.92
2023-04-09T23:18:52.526Z,38.17
2023-04-09T23:21:20.844Z,37.08
2023-04-09T23:23:48.991Z,36.65
2023-04-09T23:26:16.650Z,37.40
2023-04-09T23:28:44.338Z,35.93
2023-04-09T23:31:13.420Z,36.30
2023-04-09T23:33:41.378Z,36.45
2023-04-09T23:36:09.590Z,34.92
2023-04-09T23:38:37.298Z,36.45
2023-04-09T23:41:05.218Z,34.67
2023-04-09T23:43:32.864Z,35.55
2023-04-09T23:46:00.490Z,34.92
2023-04-09T23:48:29.591Z,34.53
2023-04-09T23:50:57.247Z,35.90
2023-04-09T23:53:25.022Z,35.70
2023-04-09T23:55:52.795Z,37.17
2023-04-09T23:58:21.362Z,37.42
